Time;durP1;ratioP1;P1;durP2;ratioP2;P2;SDS_P1;SDS_P2;PMS_P1;PMS_P2;Temp;Humidity;BMP_temperature;BMP_pressure;BME280_temperature;BME280_humidity;BME280_pressure;Samples;Min_cycle;Max_cycle;Signal;HPM_P1;HPM_P2
2022/11/18 00:01:33;;;;;;;6.30;1.30;;;7.90;99.90;;;;;;5038115;28;20076;-43
2022/11/18 00:03:58;;;;;;;4.78;1.50;;;7.90;99.90;;;;;;5037627;28;20041;-45
2022/11/18 00:06:26;;;;;;;4.88;1.40;;;7.80;99.90;;;;;;5046536;28;20040;-46
2022/11/18 00:08:53;;;;;;;4.88;1.38;;;7.80;99.90;;;;;;5043148;28;20088;-49
2022/11/18 00:14:21;;;;;;;4.22;1.35;;;7.80;99.90;;;;;;5044990;28;20052;-46
2022/11/18 00:16:51;;;;;;;4.55;1.42;;;7.80;99.90;;;;;;5040989;28;20063;-42
2022/11/18 00:19:21;;;;;;;4.00;1.13;;;7.70;99.90;;;;;;5050598;28;20107;-43
2022/11/18 00:21:47;;;;;;;3.88;1.50;;;7.70;99.90;;;;;;5048438;28;20055;-49
2022/11/18 00:24:13;;;;;;;4.80;1.95;;;7.70;99.90;;;;;;5042993;28;20046;-44
2022/11/18 00:26:39;;;;;;;5.60;2.08;;;7.60;99.90;;;;;;5050510;28;20505;-46
2022/11/18 00:29:04;;;;;;;7.35;2.40;;;7.60;99.90;;;;;;5048444;28;20048;-47
2022/11/18 00:31:30;;;;;;;5.65;1.98;;;7.60;99.90;;;;;;5049906;28;20054;-48
2022/11/18 00:33:56;;;;;;;4.95;2.00;;;7.50;99.90;;;;;;5038052;28;20037;-45
2022/11/18 00:36:21;;;;;;;4.15;1.95;;;7.50;99.90;;;;;;5045840;28;20038;-46
2022/11/18 00:38:47;;;;;;;6.95;1.90;;;7.50;99.90;;;;;;5046173;28;20511;-47
2022/11/18 00:41:14;;;;;;;4.75;2.28;;;7.50;99.90;;;;;;5043784;28;20079;-49
2022/11/18 00:43:41;;;;;;;4.65;2.08;;;7.50;99.90;;;;;;5042882;28;20712;-47
2022/11/18 00:46:09;;;;;;;6.53;3.05;;;7.50;99.90;;;;;;5045541;28;20045;-47
2022/11/18 00:48:35;;;;;;;4.68;1.90;;;7.50;99.90;;;;;;5046764;28;20025;-44
2022/11/18 00:51:09;;;;;;;5.72;2.10;;;7.50;99.90;;;;;;5045350;28;20037;-45
2022/11/18 00:53:34;;;;;;;7.82;2.75;;;7.50;99.90;;;;;;5041862;28;20518;-45
2022/11/18 00:56:00;;;;;;;4.05;1.85;;;7.50;99.90;;;;;;5044106;28;20080;-45
2022/11/18 00:58:26;;;;;;;7.88;2.20;;;7.50;99.90;;;;;;5042249;28;20121;-49
2022/11/18 01:00:52;;;;;;;4.72;1.90;;;7.50;99.90;;;;;;5021254;28;20116;-49
2022/11/18 01:03:19;;;;;;;7.80;2.92;;;7.50;99.90;;;;;;5040923;28;20068;-46
2022/11/18 01:05:44;;;;;;;8.55;2.42;;;7.50;99.90;;;;;;5046842;28;20039;-42
2022/11/18 01:08:11;;;;;;;8.95;2.08;;;7.50;99.90;;;;;;5041577;28;20049;-45
2022/11/18 01:10:38;;;;;;;6.28;2.00;;;7.50;99.90;;;;;;5041655;28;20041;-44
2022/11/18 01:13:20;;;;;;;8.13;2.63;;;7.50;99.90;;;;;;5036838;28;20128;-43
2022/11/18 01:15:56;;;;;;;6.88;2.17;;;7.50;99.90;;;;;;5042832;28;20124;-42
2022/11/18 01:18:28;;;;;;;7.22;2.60;;;7.50;99.90;;;;;;5045923;28;20548;-44
2022/11/18 01:21:00;;;;;;;6.70;2.53;;;7.50;99.90;;;;;;5027953;28;20033;-44
2022/11/18 01:23:26;;;;;;;9.15;2.47;;;7.50;99.90;;;;;;5038926;28;20037;-42
2022/11/18 01:25:51;;;;;;;6.30;2.50;;;7.50;99.90;;;;;;5035571;28;20036;-45
2022/11/18 01:28:18;;;;;;;5.90;2.47;;;7.50;99.90;;;;;;5027354;28;20048;-43
2022/11/18 01:30:44;;;;;;;5.32;2.08;;;7.50;99.90;;;;;;5043019;28;20103;-41
2022/11/18 01:33:10;;;;;;;6.82;2.78;;;7.50;99.90;;;;;;5027610;28;20129;-43
2022/11/18 01:35:41;;;;;;;4.85;2.50;;;7.40;99.90;;;;;;5044459;28;20045;-40
2022/11/18 01:38:09;;;;;;;4.82;2.17;;;7.50;99.90;;;;;;5042617;28;20595;-43
2022/11/18 01:40:36;;;;;;;8.40;3.38;;;7.40;99.90;;;;;;5037194;28;20091;-42
2022/11/18 01:43:09;;;;;;;8.27;2.72;;;7.40;99.90;;;;;;5047494;28;20375;-40
2022/11/18 01:45:38;;;;;;;6.03;2.33;;;7.40;99.90;;;;;;5043605;28;20040;-48
2022/11/18 01:48:10;;;;;;;5.85;2.67;;;7.40;99.90;;;;;;5037762;28;20043;-43
2022/11/18 01:50:41;;;;;;;7.55;3.00;;;7.40;99.90;;;;;;5037823;28;20033;-42
2022/11/18 01:53:13;;;;;;;6.20;2.55;;;7.40;99.90;;;;;;5044431;28;20029;-42
2022/11/18 01:55:45;;;;;;;5.55;2.35;;;7.40;99.90;;;;;;5040613;28;20482;-42
2022/11/18 01:58:17;;;;;;;7.00;2.60;;;7.40;99.90;;;;;;5042352;28;20548;-40
2022/11/18 02:00:43;;;;;;;;;;;7.30;99.90;;;;;;5042352;28;20034;-42
2022/11/18 02:03:08;;;;;;;5.45;2.25;;;7.30;99.90;;;;;;5040442;28;19963;-44
2022/11/18 02:05:35;;;;;;;6.38;3.03;;;7.30;99.90;;;;;;5037715;28;20552;-43
2022/11/18 02:08:01;;;;;;;6.07;2.50;;;7.30;99.90;;;;;;5042555;28;20039;-42
2022/11/18 02:10:27;;;;;;;7.00;3.00;;;7.30;99.90;;;;;;5042281;28;20040;-45
2022/11/18 02:12:55;;;;;;;6.68;2.92;;;7.30;99.90;;;;;;5045158;28;20038;-43
2022/11/18 02:16:04;;;;;;;6.57;2.88;;;7.30;99.90;;;;;;5040495;28;20061;-42
2022/11/18 02:18:45;;;;;;;6.97;3.33;;;7.30;99.90;;;;;;5039057;28;20513;-43
2022/11/18 02:21:26;;;;;;;6.68;3.05;;;7.30;99.90;;;;;;5042389;28;20504;-46
2022/11/18 02:24:10;;;;;;;6.75;2.95;;;7.30;99.90;;;;;;5018878;28;20037;-42
2022/11/18 02:26:48;;;;;;;7.30;3.50;;;7.30;99.90;;;;;;5046838;28;20071;-45
2022/11/18 02:29:27;;;;;;;8.65;3.47;;;7.30;99.90;;;;;;5037638;28;20055;-40
2022/11/18 02:32:17;;;;;;;7.30;3.25;;;7.30;99.90;;;;;;5040108;28;20052;-43
2022/11/18 02:34:42;;;;;;;6.03;3.20;;;7.30;99.90;;;;;;5045852;28;20056;-42
2022/11/18 02:37:35;;;;;;;9.52;3.45;;;7.30;99.90;;;;;;5048630;28;20033;-40
2022/11/18 02:40:13;;;;;;;12.13;4.40;;;7.20;99.90;;;;;;5038999;28;20045;-43
2022/11/18 02:42:43;;;;;;;7.30;3.42;;;7.30;99.90;;;;;;5042227;28;20116;-46
2022/11/18 02:45:14;;;;;;;7.43;3.50;;;7.30;99.90;;;;;;5040147;28;20063;-41
2022/11/18 02:47:43;;;;;;;9.65;4.00;;;7.30;99.90;;;;;;5037183;28;20149;-42
2022/11/18 02:50:13;;;;;;;7.97;4.10;;;7.30;99.90;;;;;;5043637;28;20395;-44
2022/11/18 02:52:41;;;;;;;7.85;3.67;;;7.30;99.90;;;;;;5043574;28;20198;-41
2022/11/18 02:55:11;;;;;;;8.00;3.25;;;7.20;99.90;;;;;;5040637;28;20040;-41
2022/11/18 02:57:38;;;;;;;6.57;3.58;;;7.20;99.90;;;;;;5039520;28;20045;-43
2022/11/18 03:00:05;;;;;;;9.32;4.97;;;7.30;99.90;;;;;;5039043;28;21190;-42
2022/11/18 03:02:41;;;;;;;9.70;4.88;;;7.20;99.90;;;;;;5041249;28;20033;-45
2022/11/18 03:05:15;;;;;;;12.23;6.60;;;7.20;99.90;;;;;;5038958;28;20060;-43
2022/11/18 03:07:44;;;;;;;12.68;6.78;;;7.20;99.90;;;;;;5039336;28;20537;-44
2022/11/18 03:10:10;;;;;;;11.77;6.93;;;7.30;99.90;;;;;;5042122;28;20472;-42
2022/11/18 03:12:51;;;;;;;11.00;6.68;;;7.30;99.90;;;;;;5035026;28;20127;-43
2022/11/18 03:15:51;;;;;;;11.25;7.10;;;7.30;99.90;;;;;;5040087;28;20124;-40
2022/11/18 03:18:27;;;;;;;13.63;7.40;;;7.40;99.90;;;;;;5046200;28;20513;-41
2022/11/18 03:21:04;;;;;;;11.50;6.45;;;7.40;99.90;;;;;;5041348;28;20124;-44
2022/11/18 03:23:37;;;;;;;12.88;8.52;;;7.40;99.90;;;;;;5044748;28;20037;-44
2022/11/18 03:26:15;;;;;;;17.65;8.30;;;7.40;99.90;;;;;;5039183;28;20041;-43
2022/11/18 03:28:49;;;;;;;15.73;9.15;;;7.50;99.90;;;;;;5049843;28;20095;-44
2022/11/18 03:31:25;;;;;;;14.85;8.23;;;7.50;99.90;;;;;;5033772;28;20053;-40
2022/11/18 03:33:58;;;;;;;16.42;9.38;;;7.50;99.90;;;;;;5041990;28;20041;-43
2022/11/18 03:36:27;;;;;;;15.02;8.23;;;7.50;99.90;;;;;;5046333;28;20342;-43
2022/11/18 03:38:57;;;;;;;15.45;8.88;;;7.50;99.90;;;;;;5034261;28;20510;-42
2022/11/18 03:41:26;;;;;;;17.85;10.13;;;7.60;99.90;;;;;;5039497;28;20102;-46
2022/11/18 03:43:57;;;;;;;18.20;10.55;;;7.60;99.90;;;;;;5042400;28;20115;-44
2022/11/18 03:46:30;;;;;;;17.65;10.98;;;7.60;99.90;;;;;;5040495;28;20517;-42
2022/11/18 03:48:58;;;;;;;19.75;9.63;;;7.60;99.90;;;;;;5037699;28;20067;-42
2022/11/18 03:51:48;;;;;;;21.60;9.82;;;7.60;99.90;;;;;;5041374;28;20070;-44
2022/11/18 03:54:24;;;;;;;24.08;11.57;;;7.70;99.90;;;;;;5041422;28;20638;-44
2022/11/18 03:57:02;;;;;;;21.65;10.85;;;7.70;99.90;;;;;;5039860;28;20085;-42
2022/11/18 03:59:31;;;;;;;21.40;10.93;;;7.70;99.90;;;;;;5043907;28;20044;-41
2022/11/18 04:02:12;;;;;;;21.70;11.52;;;7.80;99.90;;;;;;5039320;28;20048;-44
2022/11/18 04:04:38;;;;;;;20.52;9.93;;;7.80;99.90;;;;;;5033585;28;20044;-43
2022/11/18 04:07:36;;;;;;;18.00;10.23;;;7.80;99.90;;;;;;5033970;28;20095;-41
2022/11/18 04:10:12;;;;;;;21.45;12.10;;;7.80;99.90;;;;;;5030868;28;20060;-42
2022/11/18 04:12:43;;;;;;;18.15;9.98;;;7.80;99.90;;;;;;5039295;28;20040;-41
2022/11/18 04:15:11;;;;;;;20.98;11.15;;;7.80;99.90;;;;;;5040229;28;20559;-41
2022/11/18 04:17:40;;;;;;;22.58;11.25;;;7.90;99.90;;;;;;5038366;28;20088;-45
2022/11/18 04:20:08;;;;;;;18.48;10.60;;;7.90;99.90;;;;;;5039087;28;20498;-42
2022/11/18 04:22:34;;;;;;;21.55;10.50;;;7.90;99.90;;;;;;5042202;28;20045;-44
2022/11/18 04:24:59;;;;;;;19.00;10.30;;;7.90;99.90;;;;;;5038434;28;20043;-41
2022/11/18 04:27:25;;;;;;;25.88;12.48;;;7.90;99.90;;;;;;5043056;28;20049;-45
2022/11/18 04:29:50;;;;;;;21.15;10.65;;;7.90;99.90;;;;;;5035552;28;20658;-39
2022/11/18 04:32:16;;;;;;;19.45;10.65;;;7.90;99.90;;;;;;5043371;28;20413;-41
2022/11/18 04:34:42;;;;;;;22.65;11.00;;;7.90;99.90;;;;;;5044550;28;20045;-44
2022/11/18 04:37:07;;;;;;;20.38;10.40;;;7.90;99.90;;;;;;5044735;28;20116;-44
2022/11/18 04:39:33;;;;;;;19.38;11.15;;;7.90;99.90;;;;;;5043264;28;20037;-41
2022/11/18 04:41:59;;;;;;;19.63;10.32;;;7.90;99.90;;;;;;5036183;28;20502;-43
2022/11/18 04:44:27;;;;;;;17.88;10.38;;;7.90;99.90;;;;;;5037284;28;20178;-40
2022/11/18 04:46:53;;;;;;;22.25;11.25;;;7.90;99.90;;;;;;5043611;28;20490;-43
2022/11/18 04:49:19;;;;;;;21.65;11.38;;;7.90;99.90;;;;;;5047442;28;20542;-41
2022/11/18 04:51:46;;;;;;;22.88;12.00;;;7.90;99.90;;;;;;5041781;28;20041;-39
2022/11/18 04:54:13;;;;;;;18.80;10.88;;;7.90;99.90;;;;;;5051687;28;20118;-43
2022/11/18 04:56:39;;;;;;;20.38;10.85;;;7.90;99.90;;;;;;5048467;28;20395;-43
2022/11/18 04:59:05;;;;;;;21.30;11.48;;;7.90;99.90;;;;;;5048147;28;20041;-41
2022/11/18 05:01:31;;;;;;;21.30;11.57;;;7.90;99.90;;;;;;5044446;28;20414;-42
2022/11/18 05:03:58;;;;;;;21.48;11.02;;;7.90;99.90;;;;;;5042957;28;20124;-43
2022/11/18 05:06:24;;;;;;;19.60;10.82;;;7.90;99.90;;;;;;5044093;28;20040;-46
2022/11/18 05:08:50;;;;;;;20.45;10.95;;;7.90;99.90;;;;;;5044096;28;20037;-43
2022/11/18 05:13:59;;;;;;;22.75;11.65;;;7.90;99.90;;;;;;5041203;28;20045;-42
2022/11/18 05:16:25;;;;;;;22.75;11.45;;;7.90;99.90;;;;;;5045309;28;20044;-44
2022/11/18 05:18:51;;;;;;;20.77;11.70;;;7.90;99.90;;;;;;5042488;28;20048;-42
2022/11/18 05:21:16;;;;;;;21.17;11.45;;;7.90;99.90;;;;;;5045647;28;20394;-46
2022/11/18 05:23:42;;;;;;;22.02;11.93;;;7.90;99.90;;;;;;5037857;28;20025;-42
2022/11/18 05:26:09;;;;;;;21.10;11.18;;;7.90;99.90;;;;;;5046174;28;20079;-40
2022/11/18 05:28:35;;;;;;;19.60;10.15;;;7.90;99.90;;;;;;5038918;28;20135;-42
2022/11/18 05:31:12;;;;;;;20.77;11.15;;;7.90;99.90;;;;;;5042935;28;20466;-39
2022/11/18 05:33:38;;;;;;;17.88;10.25;;;7.90;99.90;;;;;;5048822;28;20102;-44
2022/11/18 05:36:06;;;;;;;24.10;12.07;;;7.90;99.90;;;;;;5042246;28;20544;-42
2022/11/18 05:38:33;;;;;;;20.85;11.05;;;7.90;99.90;;;;;;5044593;28;20045;-41
2022/11/18 05:40:59;;;;;;;20.95;11.55;;;7.90;99.90;;;;;;5025040;28;20029;-40
2022/11/18 05:43:25;;;;;;;17.23;10.20;;;8.00;99.90;;;;;;5038079;28;20041;-40
2022/11/18 05:45:51;;;;;;;23.40;12.10;;;7.90;99.90;;;;;;5039572;28;20107;-42
2022/11/18 05:48:17;;;;;;;20.70;10.57;;;7.90;99.90;;;;;;5045031;28;20172;-41
2022/11/18 05:50:47;;;;;;;20.80;11.32;;;8.00;99.90;;;;;;5044099;28;20092;-43
2022/11/18 05:53:13;;;;;;;20.13;10.60;;;7.90;99.90;;;;;;5048279;28;20033;-43
2022/11/18 05:55:49;;;;;;;21.95;10.82;;;8.00;99.90;;;;;;5041841;28;20041;-45
2022/11/18 05:58:15;;;;;;;18.38;9.43;;;8.00;99.90;;;;;;5044319;28;20099;-39
2022/11/18 06:00:42;;;;;;;19.23;10.68;;;8.00;99.90;;;;;;5040236;28;20041;-42
2022/11/18 06:03:18;;;;;;;20.25;10.25;;;8.00;99.90;;;;;;5035376;28;20051;-43
2022/11/18 06:05:44;;;;;;;19.52;11.20;;;8.00;99.90;;;;;;5035571;28;20029;-39
2022/11/18 06:08:12;;;;;;;19.58;11.18;;;8.00;99.90;;;;;;5038862;28;20033;-41
2022/11/18 06:10:42;;;;;;;21.33;11.48;;;8.00;99.90;;;;;;5039925;28;20037;-42
2022/11/18 06:13:10;;;;;;;22.27;10.82;;;8.00;99.90;;;;;;5035828;28;20461;-41
2022/11/18 06:15:41;;;;;;;18.75;10.15;;;8.00;99.90;;;;;;5045256;28;20029;-45
2022/11/18 06:18:17;;;;;;;20.23;10.80;;;8.00;99.90;;;;;;5037345;28;20045;-42
2022/11/18 06:20:44;;;;;;;22.30;12.02;;;8.00;99.90;;;;;;5040293;28;20426;-43
2022/11/18 06:23:10;;;;;;;18.30;10.93;;;8.00;99.90;;;;;;5040433;28;20041;-45
2022/11/18 06:25:38;;;;;;;19.40;10.98;;;8.00;99.90;;;;;;5040913;28;20537;-43
2022/11/18 06:28:04;;;;;;;19.25;10.23;;;8.00;99.90;;;;;;5039498;28;20312;-43
2022/11/18 06:30:29;;;;;;;21.13;11.63;;;8.00;99.90;;;;;;5038282;28;20514;-41
2022/11/18 06:32:55;;;;;;;23.35;11.38;;;8.00;99.90;;;;;;5039828;28;20665;-43
2022/11/18 06:35:21;;;;;;;17.05;9.30;;;8.00;99.90;;;;;;5039742;28;20448;-42
2022/11/18 06:37:47;;;;;;;21.25;11.43;;;8.00;99.90;;;;;;5039957;28;20036;-41
2022/11/18 06:40:12;;;;;;;18.67;10.35;;;8.00;99.90;;;;;;5032901;28;20041;-42
2022/11/18 06:45:22;;;;;;;22.30;12.02;;;8.00;99.90;;;;;;5036687;28;20041;-43
2022/11/18 06:47:48;;;;;;;26.13;11.75;;;8.00;99.90;;;;;;5036410;28;20033;-43
2022/11/18 06:50:14;;;;;;;21.73;11.50;;;8.00;99.90;;;;;;5040632;28;20049;-43
2022/11/18 06:52:39;;;;;;;23.48;11.77;;;8.00;99.90;;;;;;5035184;28;20064;-43
2022/11/18 06:55:07;;;;;;;20.70;11.55;;;8.00;99.90;;;;;;5035662;28;20045;-43
2022/11/18 06:57:33;;;;;;;22.58;10.43;;;8.00;99.90;;;;;;5016723;28;20120;-43
2022/11/18 06:59:59;;;;;;;20.45;11.77;;;8.00;99.90;;;;;;5036327;28;20044;-42
2022/11/18 07:02:24;;;;;;;21.55;11.20;;;8.00;99.90;;;;;;5029888;28;20044;-44
2022/11/18 07:04:50;;;;;;;19.80;11.07;;;8.00;99.90;;;;;;5032838;28;20429;-43
2022/11/18 07:07:16;;;;;;;20.90;10.70;;;8.00;99.90;;;;;;5030013;28;20033;-42
2022/11/18 07:09:41;;;;;;;23.98;11.63;;;8.00;99.90;;;;;;5036740;28;20079;-45
2022/11/18 07:12:07;;;;;;;19.63;10.30;;;8.00;99.90;;;;;;5038175;28;20064;-43
2022/11/18 07:14:33;;;;;;;21.00;11.18;;;8.00;99.90;;;;;;5037011;28;20052;-51
2022/11/18 07:16:59;;;;;;;22.42;11.15;;;8.00;99.90;;;;;;5036526;28;20485;-43
2022/11/18 07:19:24;;;;;;;23.30;10.93;;;8.00;99.90;;;;;;5036131;28;20399;-41
2022/11/18 07:21:50;;;;;;;20.90;10.63;;;8.00;99.90;;;;;;5035637;28;20103;-40
2022/11/18 07:24:16;;;;;;;19.45;10.40;;;8.00;99.90;;;;;;5034404;28;20037;-43
2022/11/18 07:26:42;;;;;;;20.05;10.35;;;8.00;99.90;;;;;;5040389;28;20129;-47
2022/11/18 07:29:08;;;;;;;18.73;10.15;;;8.00;99.90;;;;;;5041229;28;20053;-42
2022/11/18 07:31:37;;;;;;;21.27;10.40;;;8.00;99.90;;;;;;5016960;28;20064;-43
2022/11/18 07:34:03;;;;;;;20.60;11.02;;;8.00;99.90;;;;;;5038298;28;20502;-43
2022/11/18 07:36:29;;;;;;;23.63;11.05;;;8.00;99.90;;;;;;5016404;28;20067;-40
2022/11/18 07:38:59;;;;;;;18.88;10.48;;;8.00;99.90;;;;;;5032988;28;20045;-40
2022/11/18 07:41:27;;;;;;;21.38;10.60;;;8.00;99.90;;;;;;5030277;28;20056;-45
2022/11/18 07:43:57;;;;;;;19.48;9.32;;;8.10;99.90;;;;;;5036950;28;20045;-43
2022/11/18 07:46:31;;;;;;;18.90;8.80;;;8.00;99.90;;;;;;5022065;28;20047;-41
2022/11/18 07:48:59;;;;;;;17.70;9.00;;;8.10;99.90;;;;;;5033766;28;20116;-43
2022/11/18 07:51:27;;;;;;;18.23;9.73;;;8.00;99.90;;;;;;5038048;28;20438;-42
2022/11/18 07:53:53;;;;;;;23.73;9.82;;;8.00;99.90;;;;;;5036594;28;20047;-42
2022/11/18 07:56:19;;;;;;;19.90;9.82;;;8.00;99.90;;;;;;5045518;28;20561;-46
2022/11/18 07:58:45;;;;;;;21.50;10.60;;;8.00;99.90;;;;;;5028473;28;20499;-45
2022/11/18 08:01:16;;;;;;;17.70;10.45;;;8.00;99.90;;;;;;5031423;28;20045;-44
2022/11/18 08:03:43;;;;;;;20.70;10.10;;;8.00;99.90;;;;;;5038704;28;20495;-45
2022/11/18 08:06:10;;;;;;;19.60;9.77;;;8.00;99.90;;;;;;5043380;28;20287;-42
2022/11/18 08:08:36;;;;;;;18.50;9.13;;;8.00;99.90;;;;;;5034183;28;20587;-42
2022/11/18 08:11:05;;;;;;;19.48;10.10;;;8.10;99.90;;;;;;5045651;28;20568;-42
2022/11/18 08:13:32;;;;;;;15.13;8.60;;;8.10;99.90;;;;;;5041870;28;20485;-44
2022/11/18 08:15:58;;;;;;;19.33;8.65;;;8.10;99.90;;;;;;5042297;28;20081;-41
2022/11/18 08:18:24;;;;;;;22.25;10.25;;;8.10;99.90;;;;;;5044460;28;20521;-44
2022/11/18 08:20:50;;;;;;;18.20;9.57;;;8.10;99.90;;;;;;5035228;28;20045;-40
2022/11/18 08:23:17;;;;;;;16.42;9.07;;;8.10;99.90;;;;;;5038933;28;20069;-43
2022/11/18 08:25:44;;;;;;;19.60;9.52;;;8.10;99.90;;;;;;5036083;28;20079;-41
2022/11/18 08:28:10;;;;;;;16.67;9.05;;;8.10;99.90;;;;;;5043188;28;20129;-44
2022/11/18 08:30:36;;;;;;;15.57;8.15;;;8.10;99.90;;;;;;5038806;28;20045;-42
2022/11/18 08:33:03;;;;;;;16.38;8.10;;;8.10;99.90;;;;;;5043053;28;20121;-43
2022/11/18 08:35:30;;;;;;;17.27;9.63;;;8.10;99.90;;;;;;5046956;28;20041;-46
2022/11/18 08:37:56;;;;;;;16.92;8.80;;;8.10;99.90;;;;;;5046008;28;20088;-43
2022/11/18 08:40:22;;;;;;;14.48;7.57;;;8.10;99.90;;;;;;5035275;28;20048;-41
2022/11/18 08:42:48;;;;;;;14.55;7.70;;;8.10;99.90;;;;;;5045950;28;20506;-42
2022/11/18 08:45:14;;;;;;;15.68;7.80;;;8.10;99.90;;;;;;5049138;28;20072;-42
2022/11/18 08:47:40;;;;;;;12.40;7.60;;;8.10;99.90;;;;;;5043486;28;20095;-43
2022/11/18 08:50:08;;;;;;;15.77;7.68;;;8.10;99.90;;;;;;5037010;28;20041;-46
2022/11/18 08:52:34;;;;;;;12.30;6.50;;;8.10;99.90;;;;;;5041942;28;20080;-39
2022/11/18 08:55:00;;;;;;;16.15;8.00;;;8.10;99.90;;;;;;5040737;28;20048;-42
2022/11/18 08:57:26;;;;;;;16.75;7.68;;;8.10;99.90;;;;;;5039992;28;20028;-45
2022/11/18 08:59:52;;;;;;;14.02;7.78;;;8.20;99.90;;;;;;5046364;28;20037;-47
2022/11/18 09:02:20;;;;;;;14.93;7.35;;;8.10;99.90;;;;;;5041606;28;20506;-43
2022/11/18 09:04:47;;;;;;;15.48;7.93;;;8.20;99.90;;;;;;5038976;28;20620;-43
2022/11/18 09:07:12;;;;;;;14.52;7.45;;;8.20;99.90;;;;;;5043095;28;20037;-44
2022/11/18 09:09:38;;;;;;;16.02;6.90;;;8.20;99.90;;;;;;5047669;28;20040;-43
2022/11/18 09:12:04;;;;;;;14.40;7.75;;;8.20;99.90;;;;;;5042783;28;20041;-42
2022/11/18 09:14:30;;;;;;;13.45;7.05;;;8.20;99.90;;;;;;5042230;28;20042;-41
2022/11/18 09:16:56;;;;;;;14.23;6.60;;;8.20;99.90;;;;;;5041584;28;20040;-41
2022/11/18 09:19:21;;;;;;;15.70;7.93;;;8.20;99.90;;;;;;5039699;28;20041;-43
2022/11/18 09:21:47;;;;;;;11.95;6.38;;;8.30;99.90;;;;;;5047214;28;20037;-43
2022/11/18 09:24:13;;;;;;;14.57;6.65;;;8.20;99.90;;;;;;5037647;28;20037;-39
2022/11/18 09:26:38;;;;;;;11.90;6.55;;;8.20;99.90;;;;;;5043811;28;20033;-42
2022/11/18 09:29:04;;;;;;;11.32;6.75;;;8.20;99.90;;;;;;5042879;28;20056;-47
2022/11/18 09:31:30;;;;;;;10.68;5.82;;;8.20;99.90;;;;;;5041044;28;20048;-43
2022/11/18 09:33:59;;;;;;;12.63;6.35;;;8.20;99.90;;;;;;5044942;28;20029;-42
2022/11/18 09:36:25;;;;;;;11.60;6.13;;;8.20;99.90;;;;;;5046001;28;20075;-42
2022/11/18 09:38:51;;;;;;;13.40;6.65;;;8.20;99.90;;;;;;5040198;28;20038;-44
2022/11/18 09:41:31;;;;;;;12.90;8.02;;;8.30;99.90;;;;;;5052019;28;20051;-42
2022/11/18 09:44:06;;;;;;;12.13;6.32;;;8.30;99.90;;;;;;5041844;28;20091;-43
2022/11/18 09:46:56;;;;;;;12.65;6.50;;;8.40;99.90;;;;;;5041125;28;20406;-40
2022/11/18 09:49:26;;;;;;;11.57;6.57;;;8.40;99.90;;;;;;5046912;28;20046;-44
2022/11/18 09:51:53;;;;;;;11.40;6.50;;;8.50;99.90;;;;;;5040406;28;20099;-42
2022/11/18 09:54:29;;;;;;;11.95;6.22;;;8.50;99.90;;;;;;5039243;28;20403;-43
2022/11/18 09:56:55;;;;;;;12.45;6.50;;;8.60;99.90;;;;;;5036356;28;20040;-43
2022/11/18 09:59:27;;;;;;;11.18;6.20;;;8.60;99.90;;;;;;5041419;28;20063;-45
2022/11/18 10:02:01;;;;;;;14.03;6.60;;;8.50;99.90;;;;;;5037254;28;20033;-42
2022/11/18 10:04:27;;;;;;;12.15;6.60;;;8.50;99.90;;;;;;5040648;28;20038;-43
2022/11/18 10:06:53;;;;;;;14.65;6.70;;;8.50;99.90;;;;;;5038334;28;20060;-45
2022/11/18 10:09:21;;;;;;;10.20;5.70;;;8.50;99.90;;;;;;5042077;28;20065;-43
2022/11/18 10:12:19;;;;;;;12.02;6.00;;;8.50;99.90;;;;;;5048648;28;20098;-40
2022/11/18 10:15:22;;;;;;;9.93;5.53;;;8.50;99.90;;;;;;5041306;28;20037;-42
2022/11/18 10:18:08;;;;;;;7.85;4.60;;;8.50;99.90;;;;;;5032788;28;20045;-45
2022/11/18 10:20:58;;;;;;;11.23;5.18;;;8.50;99.90;;;;;;5040295;28;20384;-42
2022/11/18 10:23:39;;;;;;;9.65;5.60;;;8.50;99.90;;;;;;5029946;28;20090;-47
2022/11/18 10:26:05;;;;;;;13.02;5.85;;;8.40;99.90;;;;;;5047035;28;20363;-41
2022/11/18 10:28:31;;;;;;;11.73;5.47;;;8.40;99.90;;;;;;5048895;28;20075;-43
2022/11/18 10:31:08;;;;;;;10.52;5.75;;;8.50;99.90;;;;;;5055278;28;20080;-40
2022/11/18 10:33:35;;;;;;;13.25;6.70;;;8.40;99.90;;;;;;5038794;28;20541;-43
2022/11/18 10:36:11;;;;;;;12.48;6.22;;;8.40;99.90;;;;;;5042541;28;20048;-44
2022/11/18 10:38:38;;;;;;;12.05;6.32;;;8.40;99.90;;;;;;5043784;28;20055;-42
2022/11/18 10:41:08;;;;;;;10.32;5.40;;;8.40;99.90;;;;;;5043301;28;20045;-41
2022/11/18 10:43:54;;;;;;;13.77;6.57;;;8.40;99.90;;;;;;5034984;28;20091;-44
2022/11/18 10:46:28;;;;;;;13.73;6.38;;;8.40;99.90;;;;;;5039215;28;20041;-43
2022/11/18 10:49:09;;;;;;;12.93;6.68;;;8.50;99.90;;;;;;5044342;28;20514;-44
2022/11/18 10:51:37;;;;;;;12.43;6.60;;;8.50;99.90;;;;;;5038836;28;20041;-40
2022/11/18 10:54:13;;;;;;;12.05;6.63;;;8.50;99.90;;;;;;5042544;28;20463;-40
2022/11/18 10:57:09;;;;;;;14.57;6.43;;;8.60;99.90;;;;;;5042370;28;20530;-42
2022/11/18 10:59:50;;;;;;;11.57;6.13;;;8.60;99.90;;;;;;5038707;28;20045;-44
2022/11/18 11:02:47;;;;;;;14.27;6.50;;;8.60;99.90;;;;;;5041280;28;20490;-45
2022/11/18 11:05:19;;;;;;;12.73;6.18;;;8.60;99.90;;;;;;5036983;28;20056;-45
2022/11/18 11:07:44;;;;;;;10.82;5.40;;;8.60;99.90;;;;;;5033260;28;20166;-44
2022/11/18 11:10:11;;;;;;;12.98;6.07;;;8.60;99.90;;;;;;5039544;28;20428;-42
2022/11/18 11:12:45;;;;;;;13.68;7.05;;;8.60;99.90;;;;;;5046257;28;20079;-43
2022/11/18 11:15:23;;;;;;;14.73;6.57;;;8.60;99.90;;;;;;5040783;28;20048;-44
2022/11/18 11:20:48;;;;;;;12.35;6.85;;;8.60;99.90;;;;;;5037627;28;20329;-45
2022/11/18 11:23:15;;;;;;;11.75;6.38;;;8.60;99.90;;;;;;5041890;28;20042;-44
2022/11/18 11:25:52;;;;;;;15.02;7.50;;;8.60;99.90;;;;;;5037047;28;20033;-41
2022/11/18 11:28:38;;;;;;;14.40;7.43;;;8.70;99.90;;;;;;5045589;28;20053;-46
2022/11/18 11:31:16;;;;;;;18.75;8.60;;;8.70;99.90;;;;;;5047755;28;20051;-43
2022/11/18 11:34:16;;;;;;;13.68;7.10;;;8.70;99.90;;;;;;5039817;28;20048;-42
2022/11/18 11:37:04;;;;;;;15.23;7.20;;;8.70;99.90;;;;;;5039924;28;20157;-41
2022/11/18 11:39:38;;;;;;;15.18;6.65;;;8.70;99.90;;;;;;5041419;28;20053;-47
2022/11/18 11:42:26;;;;;;;13.07;6.65;;;8.70;99.90;;;;;;5024786;28;20431;-46
2022/11/18 11:45:28;;;;;;;13.57;6.50;;;8.70;99.90;;;;;;5047202;28;20401;-48
2022/11/18 11:48:00;;;;;;;11.57;6.22;;;8.70;99.90;;;;;;5031806;28;20537;-42
2022/11/18 11:50:29;;;;;;;9.75;5.10;;;8.70;99.90;;;;;;5050021;28;20537;-44
2022/11/18 11:53:35;;;;;;;8.70;4.55;;;8.60;99.90;;;;;;5047662;28;20145;-43
2022/11/18 11:56:16;;;;;;;11.20;5.40;;;8.60;99.90;;;;;;5011374;28;20045;-44
2022/11/18 11:59:12;;;;;;;9.82;5.82;;;8.60;99.90;;;;;;5040028;28;20502;-43
2022/11/18 12:02:04;;;;;;;8.80;4.65;;;8.60;99.90;;;;;;5041817;28;20044;-41
2022/11/18 12:04:48;;;;;;;12.32;5.80;;;8.50;99.90;;;;;;5047543;28;20049;-41
2022/11/18 12:07:41;;;;;;;10.27;5.47;;;8.60;99.90;;;;;;5042568;28;20491;-43
2022/11/18 12:10:24;;;;;;;11.65;5.50;;;8.50;99.90;;;;;;5032508;28;20048;-41
2022/11/18 12:13:07;;;;;;;10.57;5.38;;;8.50;99.90;;;;;;5040843;28;20387;-44
2022/11/18 12:16:05;;;;;;;;;;;8.40;99.90;;;;;;5041177;28;20052;-45
2022/11/18 12:18:52;;;;;;;11.40;5.22;;;8.40;99.90;;;;;;5032166;28;19931;-45
2022/11/18 12:21:44;;;;;;;12.60;5.78;;;8.30;99.90;;;;;;5039094;28;20076;-41
2022/11/18 12:24:16;;;;;;;10.63;5.38;;;8.30;99.90;;;;;;5034779;28;20506;-43
2022/11/18 12:26:43;;;;;;;12.70;7.20;;;8.30;99.90;;;;;;5045080;28;20103;-42
2022/11/18 12:29:18;;;;;;;11.55;6.20;;;8.40;99.90;;;;;;5041831;28;20387;-45
2022/11/18 12:32:03;;;;;;;12.40;6.82;;;8.40;99.90;;;;;;5043299;28;20051;-43
2022/11/18 12:34:34;;;;;;;10.90;6.35;;;8.40;99.90;;;;;;5045403;28;20513;-44
2022/11/18 12:37:22;;;;;;;14.50;7.53;;;8.30;99.90;;;;;;5038933;28;20634;-43
2022/11/18 12:39:58;;;;;;;14.35;7.20;;;8.20;99.90;;;;;;5040511;28;20298;-45
2022/11/18 12:45:42;;;;;;;13.15;7.10;;;8.20;99.90;;;;;;5046819;28;20052;-47
2022/11/18 12:48:23;;;;;;;11.23;6.22;;;8.10;99.90;;;;;;5037867;28;20544;-46
2022/11/18 12:50:50;;;;;;;11.50;6.10;;;8.10;99.90;;;;;;5048989;28;20061;-41
2022/11/18 12:53:37;;;;;;;11.15;5.65;;;8.10;99.90;;;;;;5040939;28;20099;-46
2022/11/18 12:56:21;;;;;;;11.05;6.22;;;8.20;99.90;;;;;;5046121;28;20103;-46
2022/11/18 12:58:52;;;;;;;12.13;6.63;;;8.20;99.90;;;;;;5046275;28;20056;-45
2022/11/18 13:01:21;;;;;;;11.90;6.32;;;8.20;99.90;;;;;;5028343;28;20041;-43
2022/11/18 13:03:47;;;;;;;11.52;6.10;;;8.10;99.90;;;;;;5060562;28;20045;-42
2022/11/18 13:06:18;;;;;;;10.10;5.47;;;8.10;99.90;;;;;;5016485;28;20453;-44
2022/11/18 13:08:53;;;;;;;11.80;5.47;;;8.00;99.90;;;;;;5039956;28;20041;-42
2022/11/18 13:19:34;;;;;;;12.85;5.60;;;7.90;99.90;;;;;;5043877;28;20049;-43
2022/11/18 13:24:48;;;;;;;8.25;4.82;;;7.80;99.90;;;;;;5047346;28;20041;-45
2022/11/18 13:27:21;;;;;;;8.95;4.88;;;7.80;99.90;;;;;;5046921;28;20083;-45
2022/11/18 13:30:13;;;;;;;9.25;4.55;;;7.80;99.90;;;;;;5052306;28;20136;-42
2022/11/18 13:32:44;;;;;;;8.63;4.18;;;7.80;99.90;;;;;;5045570;28;20119;-42
2022/11/18 13:35:15;;;;;;;8.40;4.15;;;7.70;99.90;;;;;;5051022;28;20044;-43